Time;durP1;ratioP1;P1;durP2;ratioP2;P2;SDS_P1;SDS_P2;PMS_P1;PMS_P2;Temp;Humidity;BMP_temperature;BMP_pressure;BME280_temperature;BME280_humidity;BME280_pressure;Samples;Min_cycle;Max_cycle;Signal;HPM_P1;HPM_P2
2022/08/07 00:01:20;;;;;;;28.00;22.40;;;15.50;99.90;;;;;;5054341;28;20052;-53
2022/08/07 00:04:07;;;;;;;24.60;20.52;;;15.50;99.90;;;;;;5055796;28;20049;-56
2022/08/07 00:06:38;;;;;;;35.60;27.33;;;15.50;99.90;;;;;;5056013;28;20047;-55
2022/08/07 00:09:19;;;;;;;25.80;20.95;;;15.60;99.90;;;;;;5056339;28;20039;-56
2022/08/07 00:11:48;;;;;;;30.08;23.25;;;15.60;99.90;;;;;;5055349;28;20143;-56
2022/08/07 00:14:25;;;;;;;24.88;21.00;;;15.60;99.90;;;;;;5055592;28;20041;-55
2022/08/07 00:17:00;;;;;;;26.83;21.20;;;15.60;99.90;;;;;;5055623;28;20060;-54
2022/08/07 00:19:30;;;;;;;26.15;21.73;;;15.70;99.90;;;;;;5055957;28;20052;-53
2022/08/07 00:22:17;;;;;;;23.02;20.23;;;15.70;99.90;;;;;;5055262;28;20451;-55
2022/08/07 00:25:08;;;;;;;26.05;21.60;;;15.70;99.90;;;;;;5054939;28;20062;-52
2022/08/07 00:27:43;;;;;;;35.10;23.75;;;15.70;99.90;;;;;;5054943;28;20051;-53
2022/08/07 00:30:20;;;;;;;24.80;20.83;;;15.70;99.90;;;;;;5056015;28;20197;-55
2022/08/07 00:32:59;;;;;;;34.15;27.38;;;15.70;99.90;;;;;;5054499;28;20569;-56
2022/08/07 00:35:27;;;;;;;32.97;24.20;;;15.60;99.90;;;;;;5056152;28;20060;-55
2022/08/07 00:37:57;;;;;;;27.17;20.48;;;15.60;99.90;;;;;;5053981;28;20044;-60
2022/08/07 00:40:25;;;;;;;21.95;18.75;;;15.60;99.90;;;;;;5047128;28;20045;-57
2022/08/07 00:43:10;;;;;;;33.22;26.80;;;15.50;99.90;;;;;;5034088;28;20048;-58
2022/08/07 00:45:59;;;;;;;26.20;22.60;;;15.50;99.90;;;;;;5021022;28;20521;-56
2022/08/07 00:48:28;;;;;;;24.75;20.85;;;15.50;99.90;;;;;;5033560;28;20045;-54
2022/08/07 00:50:59;;;;;;;27.75;22.00;;;15.40;99.90;;;;;;5033149;28;20048;-55
2022/08/07 00:53:26;;;;;;;24.98;20.80;;;15.40;99.90;;;;;;5033085;28;20156;-56
2022/08/07 00:56:14;;;;;;;21.37;18.53;;;15.40;99.90;;;;;;5047170;28;20409;-54
2022/08/07 00:58:42;;;;;;;26.95;21.95;;;15.40;99.90;;;;;;5055069;28;20048;-54
2022/08/07 01:01:14;;;;;;;23.83;20.33;;;15.40;99.90;;;;;;5054675;28;20036;-55
2022/08/07 01:03:41;;;;;;;28.02;21.73;;;15.40;99.90;;;;;;5054573;28;20040;-55
2022/08/07 01:06:27;;;;;;;22.77;19.98;;;15.40;99.90;;;;;;5053910;28;20530;-54
2022/08/07 01:08:55;;;;;;;27.15;22.38;;;15.40;99.90;;;;;;5053850;28;20253;-56
2022/08/07 01:11:30;;;;;;;34.97;28.23;;;15.40;99.90;;;;;;5053583;28;20036;-55
2022/08/07 01:14:19;;;;;;;36.08;28.70;;;15.40;99.90;;;;;;5054463;28;20132;-55
2022/08/07 01:16:54;;;;;;;37.40;28.38;;;15.40;99.90;;;;;;5054628;28;20036;-56
2022/08/07 01:19:23;;;;;;;39.00;30.73;;;15.50;99.90;;;;;;5055231;28;20070;-56
2022/08/07 01:21:53;;;;;;;34.40;28.33;;;15.50;99.90;;;;;;5053396;28;20056;-55
2022/08/07 01:24:27;;;;;;;32.88;25.70;;;15.50;99.90;;;;;;5052621;28;20055;-53
2022/08/07 01:26:58;;;;;;;34.38;26.98;;;15.50;99.90;;;;;;5053063;28;20657;-54
2022/08/07 01:29:26;;;;;;;36.95;29.55;;;15.50;99.90;;;;;;5052892;28;20040;-56
2022/08/07 01:31:59;;;;;;;30.45;25.40;;;15.50;99.90;;;;;;5052970;28;20041;-54
2022/08/07 01:34:32;;;;;;;30.27;24.58;;;15.50;99.90;;;;;;5052848;28;20043;-56
2022/08/07 01:37:05;;;;;;;30.48;25.35;;;15.50;99.90;;;;;;5053394;28;20045;-55
2022/08/07 01:39:37;;;;;;;27.73;22.63;;;15.60;99.90;;;;;;5052473;28;20044;-56
2022/08/07 01:42:27;;;;;;;35.63;27.95;;;15.60;99.90;;;;;;5047239;28;20064;-56
2022/08/07 01:45:07;;;;;;;31.05;25.73;;;15.60;99.90;;;;;;5046695;28;20636;-55
2022/08/07 01:47:42;;;;;;;28.55;23.00;;;15.60;99.90;;;;;;5052624;28;20041;-55
2022/08/07 01:50:30;;;;;;;30.93;24.13;;;15.60;99.90;;;;;;5052004;28;20068;-55
2022/08/07 01:53:01;;;;;;;36.10;29.08;;;15.60;99.90;;;;;;5052719;28;20036;-55
2022/08/07 01:55:42;;;;;;;31.58;27.05;;;15.60;99.90;;;;;;5052361;28;20072;-54
2022/08/07 01:58:13;;;;;;;28.58;25.10;;;15.60;99.90;;;;;;5054345;28;20048;-55
2022/08/07 02:00:59;;;;;;;31.67;25.98;;;15.60;99.90;;;;;;5056404;28;20048;-56
2022/08/07 02:03:50;;;;;;;36.40;29.05;;;15.60;99.90;;;;;;5058349;28;20060;-55
2022/08/07 02:06:19;;;;;;;28.75;24.13;;;15.60;99.90;;;;;;5057149;28;20885;-56
2022/08/07 02:09:03;;;;;;;32.97;27.60;;;15.60;99.90;;;;;;5056361;28;20051;-57
2022/08/07 02:11:35;;;;;;;31.75;27.30;;;15.60;99.90;;;;;;5056162;28;20041;-55
2022/08/07 02:14:27;;;;;;;26.20;22.30;;;15.60;99.90;;;;;;5056160;28;20040;-56
2022/08/07 02:17:14;;;;;;;27.33;24.40;;;15.60;99.90;;;;;;5056261;28;20053;-54
2022/08/07 02:19:56;;;;;;;27.33;22.92;;;15.60;99.90;;;;;;5055939;28;20057;-57
2022/08/07 02:22:36;;;;;;;30.52;26.95;;;15.60;99.90;;;;;;5056429;28;20113;-55
2022/08/07 02:25:10;;;;;;;35.47;28.98;;;15.60;99.90;;;;;;5055860;28;20113;-56
2022/08/07 02:27:48;;;;;;;30.30;25.42;;;15.60;99.90;;;;;;5056956;28;20056;-55
2022/08/07 02:30:20;;;;;;;34.92;27.85;;;15.60;99.90;;;;;;5056285;28;20191;-56
2022/08/07 02:32:49;;;;;;;29.70;26.33;;;15.60;99.90;;;;;;5056585;28;20037;-57
2022/08/07 02:35:36;;;;;;;32.33;27.45;;;15.60;99.90;;;;;;5055808;28;20044;-56
2022/08/07 02:38:30;;;;;;;32.05;26.80;;;15.60;99.90;;;;;;5055621;28;20045;-56
2022/08/07 02:41:01;;;;;;;29.25;25.58;;;15.60;99.90;;;;;;5039160;28;20578;-56
2022/08/07 02:43:34;;;;;;;32.50;26.55;;;15.60;99.90;;;;;;5050478;28;20775;-55
2022/08/07 02:46:06;;;;;;;28.63;22.83;;;15.60;99.90;;;;;;5050011;28;20032;-56
2022/08/07 02:48:34;;;;;;;25.67;21.73;;;15.60;99.90;;;;;;5055514;28;20083;-52
2022/08/07 02:51:11;;;;;;;25.52;22.15;;;15.60;99.90;;;;;;5055611;28;20055;-56
2022/08/07 02:54:01;;;;;;;29.52;24.00;;;15.60;99.90;;;;;;5055425;28;20082;-54
2022/08/07 02:56:31;;;;;;;30.63;24.30;;;15.60;99.90;;;;;;5055040;28;20110;-53
2022/08/07 02:59:03;;;;;;;27.15;23.25;;;15.60;99.90;;;;;;5057313;28;20559;-56
2022/08/07 03:01:33;;;;;;;25.38;22.55;;;15.70;99.90;;;;;;5055144;28;20539;-54
2022/08/07 03:04:11;;;;;;;31.88;26.90;;;15.70;99.90;;;;;;5054289;28;20051;-61
2022/08/07 03:06:46;;;;;;;35.25;27.65;;;15.60;99.90;;;;;;5055872;28;20793;-55
2022/08/07 03:09:17;;;;;;;30.55;26.55;;;15.70;99.90;;;;;;5055699;28;20053;-55
2022/08/07 03:12:08;;;;;;;28.48;24.23;;;15.60;99.90;;;;;;5055599;28;20056;-55
2022/08/07 03:14:50;;;;;;;31.08;27.67;;;15.60;99.90;;;;;;5054427;28;20047;-55
2022/08/07 03:17:19;;;;;;;27.75;23.58;;;15.60;99.90;;;;;;5055739;28;20079;-55
2022/08/07 03:19:50;;;;;;;30.95;25.52;;;15.70;99.90;;;;;;5055034;28;20662;-53
2022/08/07 03:22:23;;;;;;;32.95;27.42;;;15.60;99.90;;;;;;5055553;28;20060;-57
2022/08/07 03:24:56;;;;;;;31.40;27.38;;;15.70;99.90;;;;;;5055827;28;20127;-55
2022/08/07 03:27:23;;;;;;;30.33;25.95;;;15.70;99.90;;;;;;5055666;28;20132;-56
2022/08/07 03:30:00;;;;;;;31.75;26.17;;;15.70;99.90;;;;;;5055545;28;20059;-55
2022/08/07 03:32:37;;;;;;;33.35;27.33;;;15.70;99.90;;;;;;5054540;28;20125;-54
2022/08/07 03:35:10;;;;;;;34.42;29.27;;;15.70;99.90;;;;;;5055428;28;20072;-55
2022/08/07 03:37:50;;;;;;;42.30;31.02;;;15.70;99.90;;;;;;5054289;28;20143;-55
2022/08/07 03:40:26;;;;;;;35.28;30.73;;;15.60;99.90;;;;;;5055422;28;20052;-54
2022/08/07 03:43:06;;;;;;;36.45;29.10;;;15.60;99.90;;;;;;5048978;28;20914;-55
2022/08/07 03:45:43;;;;;;;32.85;28.80;;;15.50;99.90;;;;;;5037800;28;20048;-55
2022/08/07 03:48:17;;;;;;;30.90;27.45;;;15.60;99.90;;;;;;5034660;28;20045;-57
2022/08/07 03:50:45;;;;;;;35.42;29.15;;;15.50;99.90;;;;;;5035870;28;20056;-56
2022/08/07 03:53:27;;;;;;;34.85;28.67;;;15.50;99.90;;;;;;5035450;28;20075;-54
2022/08/07 03:56:19;;;;;;;30.30;26.10;;;15.50;99.90;;;;;;5048933;28;20048;-55
2022/08/07 03:59:04;;;;;;;28.95;25.90;;;15.50;99.90;;;;;;5039662;28;20054;-55
2022/08/07 04:01:42;;;;;;;27.77;24.75;;;15.50;99.90;;;;;;5039000;28;20143;-54
2022/08/07 04:04:16;;;;;;;29.73;25.02;;;15.40;99.90;;;;;;5054174;28;20106;-55
2022/08/07 04:06:46;;;;;;;27.80;23.85;;;15.40;99.90;;;;;;5054512;28;20044;-54
2022/08/07 04:09:20;;;;;;;30.33;23.98;;;15.50;99.90;;;;;;5054713;28;20060;-55
2022/08/07 04:11:53;;;;;;;24.13;21.52;;;15.40;99.90;;;;;;5053867;28;20040;-55
2022/08/07 04:14:41;;;;;;;24.00;21.45;;;15.50;99.90;;;;;;5053808;28;20041;-53
2022/08/07 04:17:15;;;;;;;27.52;24.50;;;15.40;99.90;;;;;;5056220;28;20044;-54
2022/08/07 04:19:49;;;;;;;24.02;20.92;;;15.50;99.90;;;;;;5054631;28;20052;-56
2022/08/07 04:22:23;;;;;;;26.05;22.50;;;15.40;99.90;;;;;;5052443;28;20052;-57
2022/08/07 04:24:59;;;;;;;26.05;22.80;;;15.40;99.90;;;;;;5038803;28;20036;-55
2022/08/07 04:27:28;;;;;;;22.23;19.80;;;15.40;99.90;;;;;;5053414;28;20047;-56
2022/08/07 04:30:09;;;;;;;29.10;25.40;;;15.40;99.90;;;;;;5053753;28;20102;-55
2022/08/07 04:33:04;;;;;;;28.15;23.67;;;15.40;99.90;;;;;;5054783;28;20498;-54
2022/08/07 04:35:38;;;;;;;31.92;28.42;;;15.40;99.90;;;;;;5054572;28;20109;-56
2022/08/07 04:38:11;;;;;;;24.70;21.52;;;15.40;99.90;;;;;;5033494;28;20399;-53
2022/08/07 04:40:43;;;;;;;30.52;24.58;;;15.40;99.90;;;;;;5034215;28;20751;-55
2022/08/07 04:43:29;;;;;;;29.40;25.77;;;15.40;99.90;;;;;;5033362;28;20053;-55
2022/08/07 04:46:41;;;;;;;33.55;26.83;;;15.40;99.90;;;;;;5046348;28;20065;-56
2022/08/07 04:49:59;;;;;;;30.15;26.40;;;15.40;99.90;;;;;;5033786;28;20089;-54
2022/08/07 04:52:52;;;;;;;26.48;23.50;;;15.40;99.90;;;;;;5033147;28;20056;-55
2022/08/07 04:55:33;;;;;;;36.20;27.80;;;15.40;99.90;;;;;;5040717;28;20044;-55
2022/08/07 04:58:30;;;;;;;29.00;23.95;;;15.40;99.90;;;;;;5054463;28;20628;-54
2022/08/07 05:01:30;;;;;;;26.58;22.58;;;15.40;99.90;;;;;;5052591;28;20040;-53
2022/08/07 05:04:08;;;;;;;28.42;22.63;;;15.50;99.90;;;;;;5053499;28;20138;-56
2022/08/07 05:06:47;;;;;;;37.10;29.60;;;15.50;99.90;;;;;;5053299;28;20045;-54
2022/08/07 05:09:37;;;;;;;31.67;26.23;;;15.50;99.90;;;;;;5053631;28;20044;-57
2022/08/07 05:12:18;;;;;;;26.50;23.67;;;15.50;99.90;;;;;;5052668;28;20480;-55
2022/08/07 05:15:16;;;;;;;25.38;22.60;;;15.50;99.90;;;;;;5052891;28;20137;-56
2022/08/07 05:17:57;;;;;;;30.33;25.13;;;15.50;99.90;;;;;;5053084;28;20056;-57
2022/08/07 05:20:39;;;;;;;25.65;22.38;;;15.50;99.90;;;;;;5054238;28;20135;-57
2022/08/07 05:23:38;;;;;;;26.17;21.60;;;15.60;99.90;;;;;;5036962;28;20554;-54
2022/08/07 05:26:13;;;;;;;29.95;26.77;;;15.60;99.90;;;;;;5053122;28;20049;-53
2022/08/07 05:28:55;;;;;;;31.40;26.92;;;15.60;99.90;;;;;;5054034;28;20044;-56
2022/08/07 05:31:32;;;;;;;30.38;27.10;;;15.60;99.90;;;;;;5052846;28;20040;-54
2022/08/07 05:34:02;;;;;;;30.35;25.42;;;15.60;99.90;;;;;;5052260;28;20045;-56
2022/08/07 05:36:36;;;;;;;32.88;27.65;;;15.70;99.90;;;;;;5053130;28;20644;-52
2022/08/07 05:39:10;;;;;;;28.98;25.85;;;15.70;99.90;;;;;;5053095;28;20961;-52
2022/08/07 05:42:00;;;;;;;32.92;29.00;;;15.70;99.90;;;;;;5053256;28;20048;-51
2022/08/07 05:44:39;;;;;;;34.08;28.83;;;15.70;99.90;;;;;;5051659;28;20059;-52
2022/08/07 05:47:20;;;;;;;35.13;28.17;;;15.70;99.90;;;;;;5033465;28;20657;-53
2022/08/07 05:50:06;;;;;;;40.45;30.55;;;15.70;99.90;;;;;;5033058;28;20068;-53
2022/08/07 05:52:35;;;;;;;33.60;28.50;;;15.70;99.90;;;;;;5032366;28;20044;-48
2022/08/07 05:55:05;;;;;;;35.28;27.17;;;15.70;99.90;;;;;;5036804;28;20033;-52
2022/08/07 05:57:41;;;;;;;37.67;27.85;;;15.70;99.90;;;;;;5052431;28;20045;-52
2022/08/07 06:00:12;;;;;;;26.05;22.88;;;15.70;99.90;;;;;;5052768;28;20814;-51
2022/08/07 06:02:52;;;;;;;39.28;27.33;;;15.70;99.90;;;;;;5052354;28;20044;-51
2022/08/07 06:05:25;;;;;;;36.28;28.05;;;15.70;99.90;;;;;;5053043;28;20610;-52
2022/08/07 06:07:59;;;;;;;35.28;28.98;;;15.70;99.90;;;;;;5052770;28;20537;-52
2022/08/07 06:10:47;;;;;;;36.67;29.50;;;15.70;99.90;;;;;;5052712;28;20040;-50
2022/08/07 06:13:21;;;;;;;31.13;26.70;;;15.70;99.90;;;;;;5051761;28;20470;-52
2022/08/07 06:16:09;;;;;;;30.70;26.33;;;15.80;99.90;;;;;;5052861;28;20036;-51
2022/08/07 06:18:40;;;;;;;33.10;26.75;;;15.80;99.90;;;;;;5052550;28;20821;-51
2022/08/07 06:21:10;;;;;;;31.33;27.20;;;15.80;99.90;;;;;;5054589;28;20047;-52
2022/08/07 06:23:57;;;;;;;;;;;15.80;99.90;;;;;;5052887;28;20044;-53
2022/08/07 06:26:45;;;;;;;29.55;25.08;;;15.80;99.90;;;;;;5052964;28;19924;-51
2022/08/07 06:29:13;;;;;;;30.95;26.85;;;15.80;99.90;;;;;;5051658;28;20163;-53
2022/08/07 06:31:40;;;;;;;32.13;25.88;;;15.80;99.90;;;;;;5051950;28;20136;-51
2022/08/07 06:34:17;;;;;;;28.33;24.48;;;15.80;99.90;;;;;;5037315;28;20056;-53
2022/08/07 06:36:47;;;;;;;24.85;22.15;;;15.80;99.90;;;;;;5051642;28;20422;-54
2022/08/07 06:39:21;;;;;;;29.40;23.48;;;15.90;99.90;;;;;;5052912;28;20051;-54
2022/08/07 06:42:29;;;;;;;27.27;24.08;;;15.90;99.90;;;;;;5051944;28;20052;-54
2022/08/07 06:45:13;;;;;;;30.77;24.83;;;15.90;99.90;;;;;;5056541;28;20066;-54
2022/08/07 06:47:47;;;;;;;27.40;23.10;;;15.90;99.90;;;;;;5051824;28;20635;-55
2022/08/07 06:50:41;;;;;;;32.45;23.05;;;15.90;99.90;;;;;;5055611;28;20102;-54
2022/08/07 06:53:16;;;;;;;24.83;21.83;;;16.00;99.90;;;;;;5055381;28;20053;-55
2022/08/07 06:56:05;;;;;;;25.45;21.85;;;16.00;99.90;;;;;;5066431;28;20040;-57
2022/08/07 06:58:42;;;;;;;25.38;21.83;;;16.00;99.90;;;;;;5055398;28;20084;-54
2022/08/07 07:01:32;;;;;;;25.50;22.27;;;16.00;99.90;;;;;;5057249;28;20524;-53
2022/08/07 07:04:11;;;;;;;29.90;23.33;;;16.10;99.90;;;;;;5055315;28;20079;-54
2022/08/07 07:06:57;;;;;;;24.25;20.45;;;16.10;99.90;;;;;;5056083;28;20095;-53
2022/08/07 07:09:30;;;;;;;23.92;21.35;;;16.10;99.90;;;;;;5056782;28;20064;-59
2022/08/07 07:12:17;;;;;;;22.13;19.33;;;16.10;99.90;;;;;;5056688;28;20660;-63
2022/08/07 07:15:15;;;;;;;29.05;24.00;;;16.10;99.90;;;;;;5061772;28;20048;-54
2022/08/07 07:18:17;;;;;;;26.80;21.10;;;16.10;99.90;;;;;;5037097;28;20067;-55
2022/08/07 07:21:10;;;;;;;27.75;24.48;;;16.10;99.90;;;;;;5035814;28;20118;-57
2022/08/07 07:23:46;;;;;;;26.10;22.98;;;16.20;99.90;;;;;;5036103;28;20131;-56
2022/08/07 07:26:33;;;;;;;;;;;16.20;99.90;;;;;;5035603;28;20042;-54
2022/08/07 07:29:10;;;;;;;34.40;25.92;;;16.20;99.90;;;;;;5036881;28;19928;-53
2022/08/07 07:32:00;;;;;;;35.70;28.17;;;16.20;99.90;;;;;;5035793;28;20049;-56
2022/08/07 07:34:30;;;;;;;37.10;29.08;;;16.20;99.90;;;;;;5034512;28;20415;-55
2022/08/07 07:37:00;;;;;;;38.40;28.10;;;16.30;99.90;;;;;;5041897;28;20119;-54
2022/08/07 07:39:50;;;;;;;34.97;27.00;;;16.30;99.90;;;;;;5054912;28;20056;-55
2022/08/07 07:42:24;;;;;;;35.58;27.88;;;16.40;99.90;;;;;;5055976;28;20090;-55
2022/08/07 07:45:01;;;;;;;36.55;26.67;;;16.40;99.90;;;;;;5054564;28;20106;-56
2022/08/07 07:47:30;;;;;;;31.80;26.98;;;16.40;99.90;;;;;;5050539;28;20127;-55
2022/08/07 07:50:19;;;;;;;28.25;23.83;;;16.40;99.90;;;;;;5049308;28;20119;-52
2022/08/07 07:53:06;;;;;;;33.97;24.15;;;16.40;99.90;;;;;;5056005;28;20075;-52
2022/08/07 07:55:52;;;;;;;27.20;23.92;;;16.40;99.90;;;;;;5054211;28;20044;-54
2022/08/07 07:58:34;;;;;;;27.90;22.05;;;16.50;99.90;;;;;;5056031;28;20579;-57
2022/08/07 08:01:08;;;;;;;31.70;24.65;;;16.40;99.90;;;;;;5055517;28;20098;-56
2022/08/07 08:03:59;;;;;;;26.65;23.25;;;16.50;99.90;;;;;;5054438;28;20106;-52
2022/08/07 08:06:38;;;;;;;30.10;24.13;;;16.50;99.90;;;;;;5055715;28;20044;-51
2022/08/07 08:09:07;;;;;;;28.67;24.65;;;16.60;99.90;;;;;;5055119;28;20052;-54
2022/08/07 08:11:36;;;;;;;33.83;26.17;;;16.60;99.90;;;;;;5039519;28;20070;-49
2022/08/07 08:14:23;;;;;;;30.85;24.80;;;16.70;99.90;;;;;;5053356;28;20131;-52
2022/08/07 08:16:54;;;;;;;25.80;21.10;;;16.70;99.90;;;;;;5050066;28;20036;-53
2022/08/07 08:19:42;;;;;;;25.80;22.13;;;16.70;99.90;;;;;;5052210;28;20307;-50
2022/08/07 08:28:20;;;;;;;27.08;22.38;;;16.80;99.90;;;;;;5054692;28;20044;-51
2022/08/07 08:31:06;;;;;;;21.88;17.85;;;16.80;99.90;;;;;;5053385;28;20056;-55
2022/08/07 08:33:42;;;;;;;20.80;18.02;;;16.90;99.90;;;;;;5053853;28;20055;-55
2022/08/07 08:36:17;;;;;;;20.95;16.50;;;16.90;99.90;;;;;;5054571;28;20049;-55
2022/08/07 08:38:54;;;;;;;19.33;15.05;;;16.90;99.90;;;;;;5043256;28;20051;-56
2022/08/07 08:41:33;;;;;;;18.58;16.58;;;16.90;99.90;;;;;;5054747;28;20049;-54
2022/08/07 08:44:35;;;;;;;22.50;15.25;;;16.90;99.90;;;;;;5053154;28;20040;-55
2022/08/07 08:47:25;;;;;;;17.10;14.38;;;16.90;99.90;;;;;;5053770;28;20037;-61
2022/08/07 08:50:13;;;;;;;15.60;12.77;;;16.90;99.90;;;;;;5032352;28;20496;-62
2022/08/07 08:53:38;;;;;;;17.23;13.67;;;16.90;99.90;;;;;;5034477;28;20064;-60
2022/08/07 08:56:13;;;;;;;14.45;12.60;;;17.00;99.90;;;;;;5045560;28;20051;-60
2022/08/07 08:58:56;;;;;;;14.75;12.98;;;17.00;99.90;;;;;;5052435;28;20522;-61
2022/08/07 09:01:42;;;;;;;17.45;14.30;;;17.00;99.90;;;;;;5053285;28;20117;-61
2022/08/07 09:04:24;;;;;;;14.60;12.73;;;17.00;99.90;;;;;;5052935;28;20071;-60
2022/08/07 09:07:13;;;;;;;13.05;11.75;;;17.00;99.90;;;;;;5033821;28;20138;-60
2022/08/07 09:09:58;;;;;;;12.93;11.60;;;17.00;99.90;;;;;;5037099;28;20960;-61
2022/08/07 09:12:52;;;;;;;11.63;10.20;;;17.00;99.90;;;;;;5052469;28;20068;-61
2022/08/07 09:15:38;;;;;;;10.30;8.95;;;17.00;99.90;;;;;;5052495;28;20052;-60
2022/08/07 09:18:53;;;;;;;11.50;10.23;;;17.10;99.90;;;;;;5053450;28;20748;-63
2022/08/07 09:21:30;;;;;;;11.43;9.07;;;17.10;99.90;;;;;;5053136;28;20131;-59
2022/08/07 09:24:38;;;;;;;10.45;9.30;;;17.10;99.90;;;;;;5052932;28;20109;-62
2022/08/07 09:27:45;;;;;;;10.40;8.27;;;17.10;99.90;;;;;;5052689;28;20050;-60
2022/08/07 09:31:04;;;;;;;9.63;8.18;;;17.10;99.90;;;;;;5052078;28;20041;-60
2022/08/07 09:33:39;;;;;;;9.68;8.57;;;17.10;99.90;;;;;;5052670;28;20036;-64
2022/08/07 09:36:47;;;;;;;9.23;7.38;;;17.10;99.90;;;;;;5053157;28;20457;-58
2022/08/07 09:39:26;;;;;;;11.25;8.80;;;17.10;99.90;;;;;;5048886;28;20274;-57
2022/08/07 09:42:38;;;;;;;10.35;8.35;;;17.10;99.90;;;;;;5053226;28;20109;-55
2022/08/07 09:45:11;;;;;;;8.55;7.63;;;17.10;99.90;;;;;;5052282;28;20040;-55
2022/08/07 09:48:21;;;;;;;9.80;8.35;;;17.10;99.90;;;;;;5053060;28;20121;-56
2022/08/07 09:51:28;;;;;;;8.55;7.45;;;17.00;99.90;;;;;;5033512;28;20205;-56
2022/08/07 09:54:39;;;;;;;;;;;17.00;99.90;;;;;;5033897;28;20045;-54
2022/08/07 09:57:31;;;;;;;8.90;6.97;;;17.00;99.90;;;;;;5051125;28;19986;-55
2022/08/07 10:00:12;;;;;;;9.55;7.82;;;17.10;99.90;;;;;;5044248;28;20055;-55
2022/08/07 10:03:12;;;;;;;8.05;7.00;;;17.10;99.90;;;;;;5049409;28;20060;-56
2022/08/07 10:06:08;;;;;;;8.48;7.57;;;17.10;99.90;;;;;;5053077;28;20513;-55
2022/08/07 10:09:12;;;;;;;10.25;8.35;;;17.10;99.90;;;;;;5052764;28;20094;-56
2022/08/07 10:12:07;;;;;;;9.23;7.53;;;17.10;99.90;;;;;;5037805;28;20036;-55
2022/08/07 10:15:17;;;;;;;6.78;6.18;;;17.10;99.90;;;;;;5051973;28;20040;-54
2022/08/07 10:18:00;;;;;;;8.02;6.82;;;17.10;99.90;;;;;;5051084;28;20151;-55
2022/08/07 10:20:48;;;;;;;8.90;7.75;;;17.10;99.90;;;;;;5056360;28;20040;-55
2022/08/07 10:23:37;;;;;;;8.15;7.35;;;17.10;99.90;;;;;;5057281;28;20048;-56
2022/08/07 10:26:40;;;;;;;7.82;6.38;;;17.10;99.90;;;;;;5056805;28;20059;-56
2022/08/07 10:29:40;;;;;;;7.68;6.20;;;17.20;99.90;;;;;;5056247;28;20120;-56
2022/08/07 10:32:30;;;;;;;9.55;7.95;;;17.10;99.90;;;;;;5055589;28;20056;-56
2022/08/07 10:35:28;;;;;;;9.98;6.93;;;17.20;99.90;;;;;;5056065;28;20138;-55
2022/08/07 10:38:29;;;;;;;10.88;8.25;;;17.20;99.90;;;;;;5056754;28;20664;-55
2022/08/07 10:41:14;;;;;;;7.40;6.32;;;17.20;99.90;;;;;;5056161;28;20045;-56
2022/08/07 10:44:22;;;;;;;7.63;6.82;;;17.20;99.90;;;;;;5056221;28;20048;-56
2022/08/07 10:47:39;;;;;;;7.35;5.60;;;17.20;99.90;;;;;;5055947;28;20054;-56
2022/08/07 10:50:26;;;;;;;6.88;6.18;;;17.30;99.90;;;;;;5049390;28;20033;-57
2022/08/07 10:53:05;;;;;;;9.00;7.32;;;17.30;99.90;;;;;;5045420;28;20678;-57
2022/08/07 10:55:43;;;;;;;8.60;7.15;;;17.30;99.90;;;;;;5056043;28;20036;-57
2022/08/07 10:58:39;;;;;;;7.05;5.43;;;17.40;99.90;;;;;;5055863;28;20036;-56
2022/08/07 11:01:26;;;;;;;6.57;5.93;;;17.40;99.90;;;;;;5054309;28;20574;-57
2022/08/07 11:04:34;;;;;;;7.35;6.65;;;17.40;99.90;;;;;;5053387;28;20060;-55
2022/08/07 11:07:17;;;;;;;8.45;7.55;;;17.40;99.90;;;;;;5055637;28;20127;-55
2022/08/07 11:10:15;;;;;;;8.18;6.28;;;17.40;99.90;;;;;;5041199;28;20162;-53
2022/08/07 11:12:58;;;;;;;8.55;6.55;;;17.40;99.90;;;;;;5055847;28;20040;-57
2022/08/07 11:15:34;;;;;;;9.68;8.00;;;17.40;99.90;;;;;;5050506;28;20060;-57
2022/08/07 11:18:18;;;;;;;8.38;7.10;;;17.40;99.90;;;;;;5055582;28;20047;-56
2022/08/07 11:21:17;;;;;;;8.07;7.05;;;17.30;99.90;;;;;;5055955;28;20067;-55
2022/08/07 11:23:58;;;;;;;7.90;5.78;;;17.30;99.90;;;;;;5053950;28;20076;-56
2022/08/07 11:26:31;;;;;;;6.72;6.13;;;17.30;99.90;;;;;;5055805;28;20067;-56
2022/08/07 11:29:10;;;;;;;6.68;5.47;;;17.40;99.90;;;;;;5055126;28;20120;-55
2022/08/07 11:31:56;;;;;;;;;;;17.40;99.90;;;;;;5054659;28;20340;-56
2022/08/07 11:34:49;;;;;;;6.18;5.57;;;17.40;99.90;;;;;;5053638;28;20310;-54
2022/08/07 11:37:35;;;;;;;10.13;6.40;;;17.50;99.90;;;;;;5055073;28;20055;-56
2022/08/07 11:40:34;;;;;;;7.45;5.53;;;17.50;99.90;;;;;;5055094;28;20556;-57
2022/08/07 11:43:10;;;;;;;6.22;5.63;;;17.60;99.90;;;;;;5054956;28;20056;-57
2022/08/07 11:46:09;;;;;;;8.80;6.40;;;17.70;99.90;;;;;;5054737;28;20044;-56
2022/08/07 11:48:57;;;;;;;6.72;5.57;;;17.90;99.90;;;;;;5055021;28;20044;-55
2022/08/07 11:51:56;;;;;;;7.20;6.18;;;18.00;99.90;;;;;;5047589;28;20049;-55
2022/08/07 11:54:57;;;;;;;7.45;5.45;;;18.10;99.90;;;;;;5033168;28;20040;-53
2022/08/07 11:57:47;;;;;;;10.13;6.80;;;18.30;99.90;;;;;;5035173;28;20041;-56
2022/08/07 12:01:06;;;;;;;10.25;6.18;;;18.40;99.90;;;;;;5034720;28;20048;-54
2022/08/07 12:04:11;;;;;;;7.60;5.63;;;18.60;99.90;;;;;;5032375;28;20098;-54
2022/08/07 12:07:04;;;;;;;6.65;5.78;;;18.60;99.90;;;;;;5034376;28;20784;-54
2022/08/07 12:09:55;;;;;;;6.03;5.35;;;18.70;99.90;;;;;;5039589;28;20147;-53
2022/08/07 12:12:30;;;;;;;8.73;6.25;;;18.80;99.90;;;;;;5051994;28;20507;-53
2022/08/07 12:15:03;;;;;;;5.90;5.05;;;18.90;99.90;;;;;;5053802;28;20048;-55
2022/08/07 12:17:46;;;;;;;8.23;4.70;;;19.00;99.90;;;;;;5053430;28;20044;-53
2022/08/07 12:20:43;;;;;;;5.82;5.22;;;19.10;99.90;;;;;;5054650;28;20132;-51
2022/08/07 12:23:39;;;;;;;6.00;5.43;;;19.10;99.90;;;;;;5052270;28;20048;-54
2022/08/07 12:26:49;;;;;;;8.25;6.90;;;19.10;99.90;;;;;;5054150;28;20041;-54
2022/08/07 12:29:24;;;;;;;5.63;4.97;;;19.10;99.90;;;;;;5054436;28;20040;-54
2022/08/07 12:32:19;;;;;;;5.43;4.80;;;19.10;99.90;;;;;;5052861;28;20110;-53
2022/08/07 12:34:49;;;;;;;6.35;5.75;;;19.10;99.90;;;;;;5053855;28;20047;-57
2022/08/07 12:37:24;;;;;;;8.48;5.93;;;19.10;99.90;;;;;;5054065;28;20048;-55
2022/08/07 12:40:12;;;;;;;7.40;6.45;;;19.10;99.90;;;;;;5054492;28;20131;-54
2022/08/07 12:43:04;;;;;;;6.13;5.53;;;19.10;99.90;;;;;;5052414;28;20648;-54
2022/08/07 12:46:05;;;;;;;8.63;5.50;;;19.20;99.90;;;;;;5053921;28;20115;-53
2022/08/07 12:49:16;;;;;;;6.18;5.60;;;19.20;99.90;;;;;;5051948;28;20040;-54
2022/08/07 12:52:11;;;;;;;7.97;5.47;;;19.30;99.90;;;;;;5052927;28;20034;-54
2022/08/07 12:55:00;;;;;;;6.07;5.20;;;19.30;99.90;;;;;;5043762;28;20687;-54
2022/08/07 12:57:38;;;;;;;7.70;5.43;;;19.40;99.90;;;;;;5032012;28;20057;-54
2022/08/07 13:00:45;;;;;;;4.43;4.05;;;19.40;99.90;;;;;;5033172;28;20507;-54
2022/08/07 13:03:44;;;;;;;5.80;4.10;;;19.50;99.90;;;;;;5048514;28;20049;-55
2022/08/07 13:06:49;;;;;;;5.13;4.63;;;19.50;99.90;;;;;;5033076;28;20155;-55
2022/08/07 13:09:53;;;;;;;5.78;5.28;;;19.50;99.90;;;;;;5035727;28;20112;-54
2022/08/07 13:13:07;;;;;;;5.78;5.28;;;19.50;99.90;;;;;;5052169;28;20889;-54
2022/08/07 13:15:46;;;;;;;6.07;4.32;;;19.50;99.90;;;;;;5033051;28;20155;-54
2022/08/07 13:18:32;;;;;;;5.38;4.20;;;19.50;99.90;;;;;;5033153;28;20605;-56
2022/08/07 13:21:08;;;;;;;6.75;5.55;;;19.50;99.90;;;;;;5033399;28;20049;-56
2022/08/07 13:23:42;;;;;;;3.95;3.55;;;19.50;99.90;;;;;;5032181;28;20049;-56
2022/08/07 13:26:43;;;;;;;3.63;3.33;;;19.50;99.90;;;;;;5034105;28;20507;-56
2022/08/07 13:29:22;;;;;;;5.13;4.30;;;19.50;99.90;;;;;;5033144;28;20059;-56
2022/08/07 13:32:02;;;;;;;10.35;4.57;;;19.50;99.90;;;;;;5033330;28;20053;-57
2022/08/07 13:35:20;;;;;;;5.13;4.60;;;19.50;99.90;;;;;;5033325;28;20130;-56
2022/08/07 13:37:50;;;;;;;6.60;4.90;;;19.50;99.90;;;;;;5045064;28;20060;-56
2022/08/07 13:40:38;;;;;;;5.88;5.38;;;19.50;99.90;;;;;;5053475;28;20048;-53
2022/08/07 13:43:14;;;;;;;4.47;4.10;;;19.40;99.90;;;;;;5047591;28;20041;-55
2022/08/07 13:45:51;;;;;;;6.63;4.65;;;19.40;99.90;;;;;;5052462;28;20076;-55
2022/08/07 13:48:42;;;;;;;4.85;4.32;;;19.40;99.90;;;;;;5052401;28;20044;-53
2022/08/07 13:51:25;;;;;;;5.53;4.40;;;19.40;99.90;;;;;;5053179;28;20120;-55
2022/08/07 13:54:14;;;;;;;5.07;3.88;;;19.40;99.90;;;;;;5039410;28;20033;-56
2022/08/07 13:56:51;;;;;;;4.30;3.90;;;19.40;99.90;;;;;;5048774;28;20120;-61
2022/08/07 13:59:32;;;;;;;5.68;4.20;;;19.40;99.90;;;;;;5052424;28;20044;-56
2022/08/07 14:02:09;;;;;;;5.72;4.45;;;19.40;99.90;;;;;;5051049;28;20524;-56